createdAt,value
2022-12-15T00:02:10.178Z,-13.27
2022-12-15T00:04:55.369Z,-13.00
2022-12-15T00:07:40.202Z,-13.26
2022-12-15T00:10:25.026Z,-13.25
2022-12-15T00:13:09.941Z,-12.99
2022-12-15T00:15:56.686Z,-13.35
2022-12-15T00:18:42.502Z,-13.59
2022-12-15T00:21:27.335Z,-14.10
2022-12-15T00:24:12.370Z,-14.25
2022-12-15T00:26:57.125Z,-14.52
2022-12-15T00:29:42.106Z,-14.77
2022-12-15T00:32:28.866Z,-14.44
2022-12-15T00:35:13.713Z,-15.17
2022-12-15T00:38:00.585Z,-15.25
2022-12-15T00:40:28.958Z,-14.78
2022-12-15T00:42:55.424Z,-14.43
2022-12-15T00:45:44.054Z,-14.19
2022-12-15T00:48:10.486Z,-14.21
2022-12-15T00:50:54.898Z,-14.01
2022-12-15T00:53:40.440Z,-13.81
2022-12-15T00:56:25.826Z,-13.92
2022-12-15T00:59:10.776Z,-13.91
2022-12-15T01:01:55.861Z,-13.83
2022-12-15T01:04:41.107Z,-14.15
2022-12-15T01:07:27.033Z,-14.81
2022-12-15T01:10:12.895Z,-15.32
2022-12-15T01:13:03.531Z,-15.52
2022-12-15T01:15:49.618Z,-15.75
2022-12-15T01:18:38.233Z,-15.68
2022-12-15T01:21:06.143Z,-15.18
2022-12-15T01:23:33.577Z,-15.32
2022-12-15T01:26:00.719Z,-15.39
2022-12-15T01:28:27.215Z,-15.32
2022-12-15T01:30:54.286Z,-15.49
2022-12-15T01:33:21.646Z,-15.39
2022-12-15T01:35:58.682Z,-15.24
2022-12-15T01:38:26.274Z,-14.93
2022-12-15T01:40:54.314Z,-15.11
2022-12-15T01:43:27.459Z,-15.35
2022-12-15T01:45:54.057Z,-15.96
2022-12-15T01:48:24.226Z,-15.86
2022-12-15T01:50:57.351Z,-16.19
2022-12-15T01:53:24.145Z,-15.85
2022-12-15T01:55:50.864Z,-15.92
2022-12-15T01:58:18.183Z,-16.16
2022-12-15T02:00:46.835Z,-16.23
2022-12-15T02:03:13.443Z,-16.33
2022-12-15T02:05:40.215Z,-16.55
2022-12-15T02:08:07.215Z,-16.70
2022-12-15T02:10:59.770Z,-16.92
2022-12-15T02:13:36.545Z,-16.91
2022-12-15T02:16:14.136Z,-16.83
2022-12-15T02:18:56.699Z,-16.72
2022-12-15T02:21:28.263Z,-16.76
2022-12-15T02:24:19.622Z,-16.81
2022-12-15T02:26:55.116Z,-16.79
2022-12-15T02:29:21.540Z,-16.65
2022-12-15T02:32:04.499Z,-16.55
2022-12-15T02:34:43.414Z,-16.62
2022-12-15T02:37:25.276Z,-16.54
2022-12-15T02:39:51.725Z,-16.40
2022-12-15T02:42:20.618Z,-15.99
2022-12-15T02:44:53.338Z,-15.66
2022-12-15T02:47:34.231Z,-15.95
2022-12-15T02:50:13.714Z,-16.08
2022-12-15T02:52:43.218Z,-15.49
2022-12-15T02:55:09.653Z,-15.39
2022-12-15T02:57:54.878Z,-15.10
2022-12-15T03:00:21.943Z,-15.04
2022-12-15T03:02:51.081Z,-15.04
2022-12-15T03:05:19.086Z,-15.21
2022-12-15T03:07:45.555Z,-15.34
2022-12-15T03:10:16.650Z,-15.24
2022-12-15T03:12:43.081Z,-15.06
2022-12-15T03:15:09.762Z,-15.59
2022-12-15T03:17:38.329Z,-16.28
2022-12-15T03:20:05.539Z,-16.68
2022-12-15T03:22:32.131Z,-16.48
2022-12-15T03:24:58.644Z,-16.03
2022-12-15T03:27:25.118Z,-15.90
2022-12-15T03:29:51.672Z,-15.79
2022-12-15T03:32:18.174Z,-15.65
2022-12-15T03:34:45.234Z,-16.26
2022-12-15T03:37:11.857Z,-16.57
2022-12-15T03:39:39.074Z,-16.65
2022-12-15T03:42:05.553Z,-16.55
2022-12-15T03:44:31.987Z,-15.93
2022-12-15T03:47:03.022Z,-15.58
2022-12-15T03:49:30.107Z,-15.21
2022-12-15T03:51:56.545Z,-15.08
2022-12-15T03:54:23.045Z,-15.88
2022-12-15T03:56:50.164Z,-16.37
2022-12-15T03:59:16.604Z,-16.71
2022-12-15T04:01:46.753Z,-16.17
2022-12-15T04:04:13.273Z,-16.58
2022-12-15T04:06:40.333Z,-17.03
2022-12-15T04:09:06.797Z,-16.86
2022-12-15T04:11:33.251Z,-16.65
2022-12-15T04:14:01.830Z,-15.89
2022-12-15T04:16:32.665Z,-15.99
2022-12-15T04:19:17.775Z,-16.14
2022-12-15T04:21:44.319Z,-15.76
2022-12-15T04:24:29.356Z,-15.63
2022-12-15T04:27:14.582Z,-15.25
2022-12-15T04:29:59.520Z,-16.11
2022-12-15T04:32:44.198Z,-16.65
2022-12-15T04:35:34.704Z,-16.72
2022-12-15T04:38:19.574Z,-16.91
2022-12-15T04:41:04.540Z,-16.90
2022-12-15T04:43:49.553Z,-16.48
2022-12-15T04:46:34.673Z,-15.99
2022-12-15T04:49:19.838Z,-15.28
2022-12-15T04:52:04.621Z,-15.93
2022-12-15T04:54:49.710Z,-16.15
2022-12-15T04:57:34.786Z,-15.96
2022-12-15T05:00:21.358Z,-15.91
2022-12-15T05:03:06.164Z,-15.91
2022-12-15T05:05:51.070Z,-16.71
2022-12-15T05:08:36.014Z,-16.91
2022-12-15T05:11:23.006Z,-16.78
2022-12-15T05:14:07.866Z,-16.69
2022-12-15T05:16:52.921Z,-15.88
2022-12-15T05:19:38.017Z,-16.19
2022-12-15T05:22:22.858Z,-15.86
2022-12-15T05:25:07.702Z,-16.05
2022-12-15T05:27:52.559Z,-16.09
2022-12-15T05:30:37.332Z,-16.08
2022-12-15T05:33:04.565Z,-16.33
2022-12-15T05:35:32.801Z,-15.79
2022-12-15T05:37:59.264Z,-15.29
2022-12-15T05:40:25.707Z,-15.43
2022-12-15T05:42:54.092Z,-15.94
2022-12-15T05:45:22.829Z,-15.79
2022-12-15T05:47:52.835Z,-15.89
2022-12-15T05:50:19.739Z,-15.92
2022-12-15T05:52:49.329Z,-16.06
2022-12-15T05:55:16.999Z,-16.64
2022-12-15T05:57:43.538Z,-16.58
2022-12-15T06:00:10.214Z,-16.58
2022-12-15T06:02:36.796Z,-16.28
2022-12-15T06:05:03.482Z,-16.05
2022-12-15T06:07:29.984Z,-16.54
2022-12-15T06:09:56.438Z,-16.21
2022-12-15T06:12:23.329Z,-15.64
2022-12-15T06:14:50.019Z,-15.67
2022-12-15T06:17:16.587Z,-15.95
2022-12-15T06:19:44.221Z,-15.47
2022-12-15T06:22:10.713Z,-14.95
2022-12-15T06:24:37.157Z,-14.63
2022-12-15T06:27:03.870Z,-15.24
2022-12-15T06:29:30.304Z,-15.47
2022-12-15T06:31:58.777Z,-15.35
2022-12-15T06:34:25.273Z,-15.24
2022-12-15T06:36:51.763Z,-15.00
2022-12-15T06:39:18.309Z,-14.85
2022-12-15T06:41:45.387Z,-15.57
2022-12-15T06:44:15.535Z,-15.75
2022-12-15T06:46:43.009Z,-15.50
2022-12-15T06:49:11.595Z,-15.04
2022-12-15T06:51:38.042Z,-14.77
2022-12-15T06:54:04.581Z,-14.61
2022-12-15T06:56:33.955Z,-15.12
2022-12-15T06:59:01.860Z,-14.99
2022-12-15T07:01:28.925Z,-15.23
2022-12-15T07:03:56.518Z,-15.35
2022-12-15T07:06:23.323Z,-15.03
2022-12-15T07:08:52.540Z,-14.62
2022-12-15T07:11:20.861Z,-14.47
2022-12-15T07:13:51.387Z,-14.85
2022-12-15T07:16:18.396Z,-14.97
2022-12-15T07:18:44.930Z,-14.55
2022-12-15T07:21:11.408Z,-14.46
2022-12-15T07:23:55.884Z,-14.53
2022-12-15T07:26:23.700Z,-14.50
2022-12-15T07:28:50.192Z,-14.26
2022-12-15T07:31:16.843Z,-14.22
2022-12-15T07:33:43.423Z,-14.06
2022-12-15T07:36:11.093Z,-14.77
2022-12-15T07:38:37.726Z,-14.68
2022-12-15T07:41:05.301Z,-14.27
2022-12-15T07:43:35.447Z,-14.89
2022-12-15T07:46:05.277Z,-14.74
2022-12-15T07:48:32.390Z,-14.70
2022-12-15T07:51:07.452Z,-14.21
2022-12-15T07:53:36.013Z,-14.28
2022-12-15T07:56:08.880Z,-14.63
2022-12-15T07:58:35.730Z,-14.96
2022-12-15T08:01:03.550Z,-14.73
2022-12-15T08:03:30.769Z,-14.18
2022-12-15T08:06:03.652Z,-13.82
2022-12-15T08:08:31.419Z,-13.77
2022-12-15T08:10:58.110Z,-13.65
2022-12-15T08:13:52.833Z,-13.44
2022-12-15T08:16:11.348Z,-13.53
2022-12-15T08:18:39.695Z,-14.05
2022-12-15T08:21:08.266Z,-14.19
2022-12-15T08:23:35.078Z,-14.53
2022-12-15T08:26:02.315Z,-14.33
2022-12-15T08:28:28.843Z,-14.05
2022-12-15T08:30:55.302Z,-13.91
2022-12-15T08:33:21.743Z,-13.67
2022-12-15T08:35:56.695Z,-13.67
2022-12-15T08:38:23.633Z,-14.29
2022-12-15T08:40:50.113Z,-13.98
2022-12-15T08:43:16.544Z,-13.65
2022-12-15T08:45:43.097Z,-13.44
2022-12-15T08:48:09.574Z,-13.35
2022-12-15T08:50:36.098Z,-13.41
2022-12-15T08:53:41.418Z,-13.33
2022-12-15T08:55:49.821Z,-13.24
2022-12-15T08:58:16.301Z,-13.06
2022-12-15T09:00:42.734Z,-13.02
2022-12-15T09:03:09.304Z,-13.03
2022-12-15T09:05:36.555Z,-12.97
2022-12-15T09:08:06.602Z,-12.87
2022-12-15T09:10:33.404Z,-12.85
2022-12-15T09:13:00.476Z,-12.89
2022-12-15T09:15:59.945Z,-12.93
2022-12-15T09:18:16.462Z,-12.73
2022-12-15T09:20:43.058Z,-12.62
2022-12-15T09:23:09.529Z,-12.49
2022-12-15T09:25:35.979Z,-12.38
2022-12-15T09:28:02.445Z,-12.12
2022-12-15T09:30:28.994Z,-11.96
2022-12-15T09:32:55.487Z,-12.13
2022-12-15T09:35:21.974Z,-12.38
2022-12-15T09:37:52.095Z,-12.50
2022-12-15T09:40:18.930Z,-12.43
2022-12-15T09:43:04.831Z,-12.41
2022-12-15T09:45:43.488Z,-12.64
2022-12-15T09:48:12.806Z,-12.81
2022-12-15T09:50:41.034Z,-12.73
2022-12-15T09:53:36.730Z,-12.66
2022-12-15T09:56:03.462Z,-12.51
2022-12-15T09:58:45.117Z,-12.36
2022-12-15T10:01:27.890Z,-12.44
2022-12-15T10:03:57.317Z,-12.49
2022-12-15T10:06:44.088Z,-12.38
2022-12-15T10:09:19.959Z,-12.32
2022-12-15T10:11:50.579Z,-12.38
2022-12-15T10:14:32.790Z,-12.26
2022-12-15T10:17:18.674Z,-12.27
2022-12-15T10:19:50.170Z,-12.27
2022-12-15T10:22:21.590Z,-12.34
2022-12-15T10:27:36.071Z,-12.33
2022-12-15T10:30:04.291Z,-12.26
2022-12-15T10:32:43.126Z,-12.14
2022-12-15T10:35:22.499Z,-12.12
2022-12-15T10:37:50.138Z,-12.28
2022-12-15T10:40:41.279Z,-12.42
2022-12-15T10:43:13.196Z,-12.26
2022-12-15T10:45:41.778Z,-12.08
2022-12-15T10:48:17.859Z,-11.99
2022-12-15T10:50:44.788Z,-11.98
2022-12-15T10:53:31.609Z,-11.97
2022-12-15T10:56:00.287Z,-11.97
2022-12-15T10:58:28.553Z,-11.97
2022-12-15T11:01:09.339Z,-12.05
2022-12-15T11:03:38.121Z,-12.11
2022-12-15T11:06:10.647Z,-12.00
2022-12-15T11:08:37.074Z,-11.99
2022-12-15T11:11:25.987Z,-11.88
2022-12-15T11:14:09.495Z,-12.02
2022-12-15T11:16:43.727Z,-12.42
2022-12-15T11:19:32.515Z,-12.72
2022-12-15T11:22:28.661Z,-12.68
2022-12-15T11:25:00.547Z,-12.28
2022-12-15T11:27:38.958Z,-12.07
2022-12-15T11:30:22.371Z,-12.12
2022-12-15T11:32:50.366Z,-12.16
2022-12-15T11:35:22.114Z,-12.27
2022-12-15T11:37:56.712Z,-12.13
2022-12-15T11:40:30.839Z,-12.00
2022-12-15T11:43:25.684Z,-12.04
2022-12-15T11:46:11.190Z,-12.25
2022-12-15T11:48:56.382Z,-12.50
2022-12-15T11:51:32.071Z,-12.40
2022-12-15T11:54:14.822Z,-12.41
2022-12-15T11:56:47.387Z,-12.52
2022-12-15T11:59:18.275Z,-12.30
2022-12-15T12:04:43.078Z,-12.25
2022-12-15T12:07:18.276Z,-11.96
2022-12-15T12:10:02.433Z,-11.81
2022-12-15T12:12:42.265Z,-11.85
2022-12-15T12:15:27.931Z,-12.77
2022-12-15T12:17:58.080Z,-13.04
2022-12-15T12:20:34.982Z,-12.78
2022-12-15T12:23:05.630Z,-12.55
2022-12-15T12:25:37.871Z,-12.29
2022-12-15T12:28:16.622Z,-12.27
2022-12-15T12:30:45.984Z,-12.19
2022-12-15T12:33:20.119Z,-12.04
2022-12-15T12:36:06.841Z,-12.12
2022-12-15T12:38:50.944Z,-12.10
2022-12-15T12:41:34.049Z,-12.29
2022-12-15T12:44:06.360Z,-12.03
2022-12-15T12:46:55.320Z,-12.22
2022-12-15T12:49:29.174Z,-12.19
2022-12-15T12:52:00.619Z,-11.99
2022-12-15T12:54:36.119Z,-11.82
2022-12-15T12:57:22.512Z,-11.82
2022-12-15T13:00:00.799Z,-11.58
2022-12-15T13:02:27.380Z,-11.47
2022-12-15T13:05:00.563Z,-11.47
2022-12-15T13:07:34.717Z,-11.49
2022-12-15T13:10:13.475Z,-11.61
2022-12-15T13:12:54.562Z,-12.37
2022-12-15T13:15:21.267Z,-12.69
2022-12-15T13:17:52.747Z,-12.97
2022-12-15T13:20:21.363Z,-12.77
2022-12-15T13:25:36.759Z,-12.40
2022-12-15T13:28:23.484Z,-12.55
2022-12-15T13:31:08.797Z,-13.71
2022-12-15T13:33:44.706Z,-14.39
2022-12-15T13:36:11.949Z,-14.53
2022-12-15T13:38:58.661Z,-13.98
2022-12-15T13:41:26.273Z,-13.77
2022-12-15T13:43:53.754Z,-14.74
2022-12-15T13:46:23.283Z,-14.44
2022-12-15T13:49:10.401Z,-14.69
2022-12-15T13:51:43.854Z,-14.97
2022-12-15T13:54:24.883Z,-14.50
2022-12-15T13:57:03.516Z,-14.39
2022-12-15T13:59:49.371Z,-14.16
2022-12-15T14:02:29.342Z,-13.82
2022-12-15T14:05:04.789Z,-14.05
2022-12-15T14:07:31.422Z,-14.50
2022-12-15T14:09:57.855Z,-14.53
2022-12-15T14:12:25.351Z,-14.07
2022-12-15T14:14:52.442Z,-14.45
2022-12-15T14:17:20.340Z,-14.33
2022-12-15T14:19:50.778Z,-14.00
2022-12-15T14:22:28.488Z,-13.96
2022-12-15T14:25:00.248Z,-14.61
2022-12-15T14:27:28.011Z,-14.96
2022-12-15T14:30:14.650Z,-15.34
2022-12-15T14:32:42.667Z,-15.39
2022-12-15T14:35:14.982Z,-14.89
2022-12-15T14:37:41.654Z,-15.33
2022-12-15T14:40:15.708Z,-15.15
2022-12-15T14:42:43.630Z,-15.02
2022-12-15T14:45:18.487Z,-14.89
2022-12-15T14:48:06.071Z,-15.27
2022-12-15T14:50:36.478Z,-16.15
2022-12-15T14:53:05.802Z,-16.54
2022-12-15T14:55:36.395Z,-16.56
2022-12-15T14:58:03.855Z,-16.33
2022-12-15T15:00:31.979Z,-16.42
2022-12-15T15:03:05.366Z,-12.77
2022-12-15T15:03:11.487Z,-12.59
2022-12-15T15:03:20.145Z,-16.07
2022-12-15T15:05:48.070Z,-16.55
2022-12-15T15:08:18.058Z,-16.61
2022-12-15T15:10:46.764Z,-16.42
2022-12-15T15:13:19.631Z,-16.73
2022-12-15T15:15:58.361Z,-16.69
2022-12-15T15:18:29.542Z,-16.70
2022-12-15T15:21:01.894Z,-16.06
2022-12-15T15:23:30.554Z,-16.25
2022-12-15T15:25:57.079Z,-15.44
2022-12-15T15:28:26.462Z,-14.94
2022-12-15T15:30:56.617Z,-15.44
2022-12-15T15:33:24.386Z,-15.57
2022-12-15T15:35:55.113Z,-15.87
2022-12-15T15:38:21.738Z,-15.20
2022-12-15T15:40:49.588Z,-14.96
2022-12-15T15:43:16.328Z,-15.57
2022-12-15T15:45:43.094Z,-15.49
2022-12-15T15:48:23.063Z,-15.83
2022-12-15T15:50:49.749Z,-15.80
2022-12-15T15:53:18.569Z,-15.97
2022-12-15T15:55:45.802Z,-16.40
2022-12-15T15:58:12.978Z,-16.60
2022-12-15T16:00:40.219Z,-17.37
2022-12-15T16:03:07.258Z,-17.50
2022-12-15T16:05:34.357Z,-17.30
2022-12-15T16:08:01.303Z,-17.06
2022-12-15T16:10:28.198Z,-16.24
2022-12-15T16:12:55.476Z,-16.28
2022-12-15T16:15:23.537Z,-16.80
2022-12-15T16:17:50.902Z,-16.44
2022-12-15T16:20:18.719Z,-15.65
2022-12-15T16:22:46.585Z,-15.55
2022-12-15T16:25:14.794Z,-16.36
2022-12-15T16:27:41.859Z,-16.49
2022-12-15T16:30:18.254Z,-16.08
2022-12-15T16:32:44.714Z,-16.49
2022-12-15T16:35:11.348Z,-16.54
2022-12-15T16:37:39.797Z,-17.06
2022-12-15T16:40:23.581Z,-17.41
2022-12-15T16:43:00.627Z,-16.97
2022-12-15T16:45:30.818Z,-16.38
2022-12-15T16:47:58.461Z,-16.72
2022-12-15T16:50:34.243Z,-17.09
2022-12-15T16:53:00.978Z,-17.32
2022-12-15T16:55:28.135Z,-16.65
2022-12-15T16:57:55.871Z,-16.38
2022-12-15T17:00:24.789Z,-16.16
2022-12-15T17:02:51.446Z,-16.31
2022-12-15T17:05:18.326Z,-16.92
2022-12-15T17:07:47.622Z,-17.18
2022-12-15T17:10:18.158Z,-16.82
2022-12-15T17:12:46.972Z,-16.63
2022-12-15T17:15:31.598Z,-17.16
2022-12-15T17:17:58.909Z,-16.84
2022-12-15T17:20:30.262Z,-16.69
2022-12-15T17:23:03.508Z,-17.15
2022-12-15T17:26:18.023Z,-17.45
2022-12-15T17:28:26.266Z,-17.60
2022-12-15T17:30:52.830Z,-17.79
2022-12-15T17:33:20.726Z,-17.81
2022-12-15T17:35:49.078Z,-17.86
2022-12-15T17:38:19.686Z,-17.32
2022-12-15T17:40:46.889Z,-16.81
2022-12-15T17:43:14.197Z,-16.82
2022-12-15T17:45:40.704Z,-16.49
2022-12-15T17:48:09.251Z,-16.21
2022-12-15T17:50:35.739Z,-16.57
2022-12-15T17:53:07.328Z,-16.95
2022-12-15T17:55:35.384Z,-16.97
2022-12-15T17:58:02.764Z,-17.01
2022-12-15T18:00:30.861Z,-17.29
2022-12-15T18:02:58.513Z,-17.37
2022-12-15T18:05:26.591Z,-17.34
2022-12-15T18:07:54.747Z,-16.28
2022-12-15T18:10:29.282Z,-16.43
2022-12-15T18:12:55.983Z,-16.88
2022-12-15T18:15:23.743Z,-17.16
2022-12-15T18:17:51.081Z,-17.31
2022-12-15T18:20:19.071Z,-16.79
2022-12-15T18:22:46.087Z,-17.05
2022-12-15T18:25:15.104Z,-17.09
2022-12-15T18:27:41.556Z,-16.72
2022-12-15T18:30:13.120Z,-17.09
2022-12-15T18:32:42.130Z,-16.65
2022-12-15T18:35:19.557Z,-16.08
2022-12-15T18:37:48.990Z,-16.87
2022-12-15T18:40:16.286Z,-17.37
2022-12-15T18:42:43.718Z,-17.59
2022-12-15T18:45:20.586Z,-17.43
2022-12-15T18:47:47.491Z,-17.16
2022-12-15T18:50:14.965Z,-16.70
2022-12-15T18:52:41.583Z,-16.88
2022-12-15T18:55:23.872Z,-16.40
2022-12-15T18:57:52.863Z,-16.34
2022-12-15T19:00:25.790Z,-16.72
2022-12-15T19:02:53.562Z,-16.87
2022-12-15T19:05:29.577Z,-17.03
2022-12-15T19:08:13.299Z,-17.39
2022-12-15T19:10:47.255Z,-17.40
2022-12-15T19:13:14.459Z,-17.44
2022-12-15T19:15:41.067Z,-17.66
2022-12-15T19:18:30.976Z,-17.74
2022-12-15T19:21:17.910Z,-17.71
2022-12-15T19:23:44.447Z,-17.87
2022-12-15T19:26:13.613Z,-17.83
2022-12-15T19:28:41.987Z,-17.66
2022-12-15T19:31:08.449Z,-17.45
2022-12-15T19:33:35.229Z,-17.31
2022-12-15T19:36:02.522Z,-17.39
2022-12-15T19:38:31.576Z,-17.65
2022-12-15T19:40:59.539Z,-17.69
2022-12-15T19:43:26.345Z,-17.68
2022-12-15T19:45:53.083Z,-17.79
2022-12-15T19:48:23.408Z,-17.71
2022-12-15T19:50:52.093Z,-17.50
2022-12-15T19:53:26.326Z,-17.15
2022-12-15T19:55:57.181Z,-16.92
2022-12-15T19:58:28.107Z,-16.90
2022-12-15T20:00:55.940Z,-16.67
2022-12-15T20:03:22.547Z,-16.59
2022-12-15T20:05:51.024Z,-16.75
2022-12-15T20:08:19.818Z,-16.58
2022-12-15T20:10:46.622Z,-16.32
2022-12-15T20:13:13.662Z,-16.01
2022-12-15T20:15:40.110Z,-16.16
2022-12-15T20:18:07.415Z,-16.24
2022-12-15T20:20:33.910Z,-16.25
2022-12-15T20:23:04.041Z,-16.39
2022-12-15T20:25:32.472Z,-16.57
2022-12-15T20:28:00.641Z,-16.57
2022-12-15T20:30:35.354Z,-16.55
2022-12-15T20:33:03.224Z,-16.16
2022-12-15T20:35:31.572Z,-16.17
2022-12-15T20:38:00.034Z,-16.24
2022-12-15T20:40:30.456Z,-16.29
2022-12-15T20:42:57.406Z,-16.16
2022-12-15T20:45:27.426Z,-16.30
2022-12-15T20:47:54.828Z,-16.45
2022-12-15T20:50:27.261Z,-16.42
2022-12-15T20:52:54.941Z,-16.45
2022-12-15T20:55:21.910Z,-16.42
2022-12-15T20:57:50.946Z,-16.33
2022-12-15T21:00:20.743Z,-16.54
2022-12-15T21:02:47.761Z,-17.08
2022-12-15T21:05:19.298Z,-16.78
2022-12-15T21:07:46.401Z,-16.35
2022-12-15T21:10:14.185Z,-16.30
2022-12-15T21:12:44.083Z,-16.32
2022-12-15T21:15:18.169Z,-16.01
2022-12-15T21:17:53.916Z,-16.21
2022-12-15T21:20:30.193Z,-16.33
2022-12-15T21:22:59.014Z,-16.46
2022-12-15T21:25:26.388Z,-17.22
2022-12-15T21:27:52.830Z,-16.97
2022-12-15T21:30:21.614Z,-16.93
2022-12-15T21:32:48.498Z,-16.40
2022-12-15T21:35:18.289Z,-16.75
2022-12-15T21:37:46.371Z,-17.36
2022-12-15T21:40:17.327Z,-17.49
2022-12-15T21:42:43.992Z,-17.06
2022-12-15T21:45:30.914Z,-16.74
2022-12-15T21:48:16.078Z,-16.03
2022-12-15T21:50:47.734Z,-15.61
2022-12-15T21:53:19.391Z,-16.57
2022-12-15T21:55:46.518Z,-17.12
2022-12-15T21:58:19.510Z,-16.75
2022-12-15T22:00:46.046Z,-16.68
2022-12-15T22:03:12.558Z,-16.73
2022-12-15T22:05:39.924Z,-17.40
2022-12-15T22:08:19.651Z,-18.04
2022-12-15T22:10:47.004Z,-18.14
2022-12-15T22:13:16.301Z,-17.74
2022-12-15T22:15:43.546Z,-18.13
2022-12-15T22:18:11.932Z,-17.02
2022-12-15T22:20:38.342Z,-17.60
2022-12-15T22:23:04.805Z,-18.27
2022-12-15T22:25:31.215Z,-18.38
2022-12-15T22:27:57.674Z,-17.86
2022-12-15T22:30:25.507Z,-17.06
2022-12-15T22:32:52.470Z,-16.28
2022-12-15T22:35:21.564Z,-16.19
2022-12-15T22:37:49.803Z,-15.94
2022-12-15T22:40:17.508Z,-16.32
2022-12-15T22:42:45.987Z,-16.44
2022-12-15T22:45:16.738Z,-16.21
2022-12-15T22:47:44.696Z,-16.76
2022-12-15T22:50:18.772Z,-17.43
2022-12-15T22:52:45.799Z,-17.73
2022-12-15T22:55:16.465Z,-17.35
2022-12-15T22:57:44.829Z,-17.38
2022-12-15T23:00:11.639Z,-17.22
2022-12-15T23:02:40.396Z,-17.41
2022-12-15T23:05:07.688Z,-17.54
2022-12-15T23:07:34.472Z,-17.89
2022-12-15T23:10:19.724Z,-18.04
2022-12-15T23:12:46.226Z,-18.49
2022-12-15T23:15:31.459Z,-18.03
2022-12-15T23:17:58.663Z,-17.27
2022-12-15T23:20:25.078Z,-16.77
2022-12-15T23:22:51.534Z,-16.09
2022-12-15T23:25:18.032Z,-16.25
2022-12-15T23:27:44.685Z,-16.11
2022-12-15T23:30:12.738Z,-16.35
2022-12-15T23:32:39.158Z,-16.03
2022-12-15T23:35:05.926Z,-15.90
2022-12-15T23:37:32.350Z,-17.17
2022-12-15T23:39:58.782Z,-16.68
2022-12-15T23:42:25.324Z,-16.37
2022-12-15T23:44:53.957Z,-16.03
2022-12-15T23:47:21.416Z,-16.53
2022-12-15T23:49:50.097Z,-17.11
2022-12-15T23:52:18.346Z,-16.68
2022-12-15T23:54:46.907Z,-16.94
2022-12-15T23:57:13.306Z,-17.43
2022-12-15T23:59:39.710Z,-17.31
